Time;durP1;ratioP1;P1;durP2;ratioP2;P2;SDS_P1;SDS_P2;PMS_P1;PMS_P2;Temp;Humidity;BMP_temperature;BMP_pressure;BME280_temperature;BME280_humidity;BME280_pressure;Samples;Min_cycle;Max_cycle;Signal;HPM_P1;HPM_P2
2022/12/25 00:00:55;;;;;;;0.40;0.40;;;6.50;99.90;;;;;;5027906;28;20378;-67
2022/12/25 00:03:21;;;;;;;1.23;1.13;;;6.50;99.90;;;;;;5027913;28;20045;-67
2022/12/25 00:05:47;;;;;;;1.08;0.85;;;6.40;99.90;;;;;;5027540;28;20103;-67
2022/12/25 00:08:15;;;;;;;0.20;0.20;;;6.50;99.90;;;;;;5022067;28;20052;-67
2022/12/25 00:10:41;;;;;;;0.10;0.10;;;6.50;99.90;;;;;;5026551;28;20670;-67
2022/12/25 00:13:06;;;;;;;0.15;0.15;;;6.60;99.90;;;;;;5023832;28;20076;-67
2022/12/25 00:15:32;;;;;;;0.25;0.25;;;6.50;99.90;;;;;;5026817;28;20046;-68
2022/12/25 00:17:57;;;;;;;5.03;2.00;;;6.50;99.90;;;;;;5028968;28;20041;-67
2022/12/25 00:20:23;;;;;;;1.38;1.33;;;6.60;99.90;;;;;;5027602;28;20477;-67
2022/12/25 00:22:48;;;;;;;2.17;1.13;;;6.50;99.90;;;;;;5026148;28;20500;-68
2022/12/25 00:25:14;;;;;;;0.17;0.17;;;6.60;99.90;;;;;;5024012;28;20050;-67
2022/12/25 00:27:40;;;;;;;0.28;0.28;;;6.60;99.90;;;;;;5028887;28;20061;-67
2022/12/25 00:30:06;;;;;;;3.60;1.83;;;6.60;99.90;;;;;;5025707;28;20127;-67
2022/12/25 00:32:37;;;;;;;0.25;0.22;;;6.70;99.90;;;;;;5027796;28;20120;-67
2022/12/25 00:35:04;;;;;;;0.10;0.10;;;6.70;99.90;;;;;;5027926;28;20038;-67
2022/12/25 00:37:29;;;;;;;2.72;1.58;;;6.70;99.90;;;;;;5023388;28;20062;-67
2022/12/25 00:39:55;;;;;;;0.30;0.30;;;6.70;99.90;;;;;;5020996;28;20038;-67
2022/12/25 00:42:22;;;;;;;1.08;1.08;;;6.70;99.90;;;;;;5019349;28;20037;-67
2022/12/25 00:44:49;;;;;;;0.20;0.20;;;6.70;99.90;;;;;;5027376;28;20496;-67
2022/12/25 00:47:16;;;;;;;0.38;0.38;;;6.70;99.90;;;;;;5027539;28;20053;-67
2022/12/25 00:49:42;;;;;;;0.17;0.17;;;6.60;99.90;;;;;;5028491;28;20117;-67
2022/12/25 00:52:08;;;;;;;2.25;1.55;;;6.70;99.90;;;;;;5027168;28;20144;-67
2022/12/25 00:54:33;;;;;;;0.20;0.20;;;6.60;99.90;;;;;;5028359;28;20057;-67
2022/12/25 00:56:59;;;;;;;0.03;0.03;;;6.60;99.90;;;;;;5028660;28;20037;-67
2022/12/25 00:59:25;;;;;;;0.90;0.90;;;6.70;99.90;;;;;;5024391;28;20049;-68
2022/12/25 01:01:50;;;;;;;0.20;0.20;;;6.70;99.90;;;;;;5027242;28;20413;-67
2022/12/25 01:04:16;;;;;;;0.13;0.13;;;6.50;99.90;;;;;;5026785;28;20144;-67
2022/12/25 01:06:41;;;;;;;9.18;0.90;;;6.60;99.90;;;;;;5027317;28;20045;-67
2022/12/25 01:11:52;;;;;;;1.65;0.77;;;6.60;99.90;;;;;;5015425;28;20044;-67
2022/12/25 01:14:17;;;;;;;2.67;1.75;;;6.70;99.90;;;;;;5028508;28;20049;-67
2022/12/25 01:16:43;;;;;;;0.47;0.47;;;6.60;99.90;;;;;;5026917;28;20386;-67
2022/12/25 01:19:09;;;;;;;0.45;0.45;;;6.70;99.90;;;;;;5027550;28;20124;-67
2022/12/25 01:21:35;;;;;;;0.50;0.50;;;6.70;99.90;;;;;;5026365;28;20042;-68
2022/12/25 01:24:01;;;;;;;0.55;0.55;;;6.70;99.90;;;;;;5031891;28;20049;-67
2022/12/25 01:26:27;;;;;;;2.85;2.35;;;6.60;99.90;;;;;;5031099;28;20046;-67
2022/12/25 01:28:52;;;;;;;0.10;0.10;;;6.60;99.90;;;;;;5032034;28;20033;-68
2022/12/25 01:31:21;;;;;;;0.32;0.32;;;6.60;99.90;;;;;;5033005;28;20084;-67
2022/12/25 01:33:47;;;;;;;0.00;0.00;;;6.60;99.90;;;;;;5031501;28;20041;-67
2022/12/25 01:36:15;;;;;;;0.45;0.45;;;6.50;99.90;;;;;;5031988;28;20072;-67
2022/12/25 01:38:42;;;;;;;0.10;0.10;;;6.50;99.90;;;;;;5031337;28;22025;-67
2022/12/25 01:41:08;;;;;;;1.90;1.50;;;6.50;99.90;;;;;;5028524;28;20907;-67
2022/12/25 01:43:33;;;;;;;0.80;0.80;;;6.60;99.90;;;;;;5031982;28;20204;-67
2022/12/25 01:46:02;;;;;;;0.20;0.20;;;6.70;99.90;;;;;;5032295;28;20034;-67
2022/12/25 01:48:32;;;;;;;12.25;4.28;;;6.70;99.90;;;;;;5011645;28;20058;-67
2022/12/25 01:51:19;;;;;;;2.22;1.35;;;6.80;99.90;;;;;;5010049;28;20052;-67
2022/12/25 01:53:44;;;;;;;0.13;0.13;;;6.80;99.90;;;;;;4992154;28;20386;-67
2022/12/25 01:56:11;;;;;;;2.05;1.85;;;6.80;99.90;;;;;;5011652;28;20045;-67
2022/12/25 01:58:36;;;;;;;0.20;0.20;;;6.90;99.90;;;;;;4990281;28;20046;-67
2022/12/25 02:01:02;;;;;;;1.75;1.30;;;6.90;99.90;;;;;;5003345;28;20052;-67
2022/12/25 02:03:27;;;;;;;0.80;0.80;;;7.00;99.90;;;;;;5011417;28;20127;-67
2022/12/25 02:05:53;;;;;;;1.10;1.05;;;7.00;99.90;;;;;;5012052;28;20072;-67
2022/12/25 02:08:20;;;;;;;0.75;0.75;;;7.00;99.90;;;;;;5008589;28;20046;-67
2022/12/25 02:10:46;;;;;;;0.20;0.20;;;7.10;99.90;;;;;;5010112;28;20053;-68
2022/12/25 02:13:14;;;;;;;0.60;0.60;;;7.10;99.90;;;;;;5012116;28;20045;-67
2022/12/25 02:16:07;;;;;;;1.13;1.13;;;7.10;99.90;;;;;;4993445;28;20478;-67
2022/12/25 02:18:36;;;;;;;0.30;0.30;;;7.10;99.90;;;;;;4990247;28;20162;-67
2022/12/25 02:21:20;;;;;;;5.43;2.80;;;7.20;99.90;;;;;;4989897;28;20057;-68
2022/12/25 02:23:48;;;;;;;0.10;0.10;;;7.30;99.90;;;;;;5009139;28;20050;-68
2022/12/25 02:26:42;;;;;;;0.22;0.22;;;7.40;99.90;;;;;;4990541;28;20486;-68
2022/12/25 02:29:20;;;;;;;0.20;0.20;;;7.50;99.90;;;;;;5006693;28;20497;-68
2022/12/25 02:32:22;;;;;;;0.30;0.30;;;7.60;99.90;;;;;;5001349;28;20393;-68
2022/12/25 02:35:22;;;;;;;0.10;0.10;;;7.60;99.90;;;;;;4990527;28;20082;-68
2022/12/25 02:37:54;;;;;;;1.05;1.00;;;7.60;99.90;;;;;;5002202;28;20050;-68
2022/12/25 02:40:26;;;;;;;0.28;0.28;;;7.70;99.90;;;;;;5011268;28;20287;-68
2022/12/25 03:08:32;;;;;;;1.58;1.50;;;7.90;99.90;;;;;;5008154;28;20133;-69
2022/12/25 03:13:51;;;;;;;0.10;0.10;;;8.00;99.90;;;;;;5008100;28;20085;-69
2022/12/25 03:26:53;;;;;;;0.88;0.82;;;8.00;99.90;;;;;;5006756;28;20069;-68
2022/12/25 03:27:22;;;;;;;2.92;1.58;;;8.00;99.90;;;;;;5010097;28;20088;-68
2022/12/25 03:32:48;;;;;;;0.43;0.43;;;8.00;99.90;;;;;;5004766;28;20562;-69
2022/12/25 03:35:24;;;;;;;0.20;0.20;;;8.00;99.90;;;;;;5009896;28;20037;-68
2022/12/25 04:37:17;;;;;;;0.82;0.55;;;8.40;99.90;;;;;;5008689;28;20053;-68
2022/12/25 04:39:43;;;;;;;0.82;0.82;;;8.40;99.90;;;;;;5008837;28;20391;-68
2022/12/25 04:42:09;;;;;;;0.32;0.32;;;8.40;99.90;;;;;;4989244;28;20145;-68
2022/12/25 04:44:34;;;;;;;1.27;1.27;;;8.40;99.90;;;;;;4987192;28;20038;-68
2022/12/25 04:47:00;;;;;;;1.45;1.42;;;8.40;99.90;;;;;;5014585;28;20092;-68
2022/12/25 04:49:26;;;;;;;0.40;0.40;;;8.40;99.90;;;;;;5027055;28;20120;-68
2022/12/25 04:51:51;;;;;;;0.60;0.60;;;8.40;99.90;;;;;;5026247;28;20079;-68
2022/12/25 04:54:17;;;;;;;6.65;3.20;;;8.50;99.90;;;;;;5028995;28;20041;-68
2022/12/25 04:56:42;;;;;;;3.30;2.08;;;8.50;99.90;;;;;;5024916;28;20152;-68
2022/12/25 04:59:08;;;;;;;1.40;1.38;;;8.50;99.90;;;;;;5028259;28;20037;-68
2022/12/25 05:01:34;;;;;;;0.45;0.45;;;8.40;99.90;;;;;;5025537;28;20049;-68
2022/12/25 05:04:00;;;;;;;0.82;0.82;;;8.40;99.90;;;;;;5022651;28;20041;-68
2022/12/25 05:06:25;;;;;;;0.38;0.38;;;8.40;99.90;;;;;;5027269;28;20086;-68
2022/12/25 05:08:51;;;;;;;0.52;0.52;;;8.40;99.90;;;;;;5026824;28;20085;-68
2022/12/25 05:11:16;;;;;;;0.57;0.55;;;8.40;99.90;;;;;;5025072;28;20120;-68
2022/12/25 05:13:42;;;;;;;1.00;1.00;;;8.40;99.90;;;;;;5027156;28;20053;-69
2022/12/25 05:16:14;;;;;;;0.82;0.82;;;8.30;99.90;;;;;;5028221;28;20044;-68
2022/12/25 05:18:40;;;;;;;5.78;2.20;;;8.30;99.90;;;;;;5026872;28;20087;-69
2022/12/25 05:21:06;;;;;;;0.68;0.68;;;8.30;99.90;;;;;;5026879;28;20417;-69
2022/12/25 05:23:32;;;;;;;0.17;0.17;;;8.30;99.90;;;;;;5027513;28;20053;-68
2022/12/25 05:26:02;;;;;;;0.82;0.82;;;8.30;99.90;;;;;;5025711;28;20386;-68
2022/12/25 05:28:27;;;;;;;0.43;0.43;;;8.30;99.90;;;;;;5023164;28;20054;-69
2022/12/25 05:30:56;;;;;;;0.10;0.10;;;8.30;99.90;;;;;;5017993;28;20052;-68
2022/12/25 05:33:21;;;;;;;0.32;0.32;;;8.30;99.90;;;;;;5027329;28;20041;-68
2022/12/25 05:35:47;;;;;;;0.68;0.63;;;8.20;99.90;;;;;;5025394;28;20075;-68
2022/12/25 05:38:12;;;;;;;0.63;0.63;;;8.20;99.90;;;;;;5025335;28;20107;-68
2022/12/25 05:40:39;;;;;;;0.60;0.60;;;8.30;99.90;;;;;;5020217;28;20041;-68
2022/12/25 05:43:05;;;;;;;1.10;1.10;;;8.30;99.90;;;;;;5027687;28;20049;-68
2022/12/25 05:45:31;;;;;;;1.38;1.27;;;8.20;99.90;;;;;;5023491;28;20050;-68
2022/12/25 05:47:57;;;;;;;2.05;1.20;;;8.20;99.90;;;;;;5025867;28;20053;-68
2022/12/25 05:50:22;;;;;;;0.17;0.17;;;8.30;99.90;;;;;;5025616;28;20056;-68
2022/12/25 05:52:48;;;;;;;0.32;0.32;;;8.30;99.90;;;;;;5025267;28;20046;-68
2022/12/25 05:55:15;;;;;;;1.05;1.05;;;8.30;99.90;;;;;;5025922;28;20532;-68
2022/12/25 05:57:40;;;;;;;2.47;2.20;;;8.30;99.90;;;;;;5027641;28;20164;-68
2022/12/25 06:00:07;;;;;;;0.70;0.52;;;8.30;99.90;;;;;;5024800;28;20137;-68
2022/12/25 06:02:34;;;;;;;5.88;1.85;;;8.30;99.90;;;;;;5026970;28;20037;-68
2022/12/25 06:05:00;;;;;;;0.15;0.15;;;8.30;99.90;;;;;;5023274;28;20053;-68
2022/12/25 06:07:26;;;;;;;0.30;0.30;;;8.30;99.90;;;;;;5022943;28;20045;-68
2022/12/25 06:09:52;;;;;;;0.55;0.52;;;8.30;99.90;;;;;;5024699;28;20400;-68
2022/12/25 06:12:17;;;;;;;0.35;0.35;;;8.30;99.90;;;;;;5031563;28;20068;-68
2022/12/25 06:14:43;;;;;;;0.40;0.40;;;8.30;99.90;;;;;;5029784;28;20437;-68
2022/12/25 06:17:08;;;;;;;0.10;0.10;;;8.40;99.90;;;;;;5030540;28;20080;-68
2022/12/25 06:19:34;;;;;;;0.28;0.28;;;8.40;99.90;;;;;;5031385;28;20049;-68
2022/12/25 06:21:59;;;;;;;1.13;1.13;;;8.40;99.90;;;;;;5022780;28;20047;-68
2022/12/25 06:24:25;;;;;;;0.45;0.45;;;8.40;99.90;;;;;;5030169;28;20053;-68
2022/12/25 06:26:50;;;;;;;0.45;0.45;;;8.40;99.90;;;;;;5029483;28;20485;-68
2022/12/25 06:29:16;;;;;;;2.20;1.00;;;8.40;99.90;;;;;;5027433;28;20069;-68
2022/12/25 06:31:42;;;;;;;0.60;0.60;;;8.40;99.90;;;;;;5030089;28;20045;-68
2022/12/25 06:34:07;;;;;;;0.40;0.40;;;8.40;99.90;;;;;;5031312;28;20056;-68
2022/12/25 06:36:36;;;;;;;0.82;0.82;;;8.40;99.90;;;;;;5026272;28;20050;-68
2022/12/25 06:39:02;;;;;;;3.72;1.38;;;8.50;99.90;;;;;;5030149;28;20416;-68
2022/12/25 06:41:28;;;;;;;0.65;0.55;;;8.50;99.90;;;;;;5027076;28;20049;-68
2022/12/25 06:43:56;;;;;;;1.25;0.93;;;8.50;99.90;;;;;;5029135;28;20042;-68
2022/12/25 06:46:23;;;;;;;0.13;0.13;;;8.50;99.90;;;;;;5027497;28;20056;-68
2022/12/25 06:48:49;;;;;;;0.40;0.40;;;8.50;99.90;;;;;;5026296;28;20596;-68
2022/12/25 06:51:16;;;;;;;0.60;0.60;;;8.50;99.90;;;;;;5026754;28;20063;-68
2022/12/25 06:53:42;;;;;;;1.00;1.00;;;8.50;99.90;;;;;;5030443;28;20654;-68
2022/12/25 06:56:14;;;;;;;2.10;1.48;;;8.50;99.90;;;;;;5028562;28;20095;-68
2022/12/25 06:58:44;;;;;;;0.43;0.43;;;8.50;99.90;;;;;;5028322;28;20046;-67
2022/12/25 07:01:33;;;;;;;7.28;1.88;;;8.50;99.90;;;;;;5025820;28;20048;-68
2022/12/25 07:04:11;;;;;;;0.88;0.88;;;8.50;99.90;;;;;;5029220;28;20049;-68
2022/12/25 07:06:36;;;;;;;1.00;1.00;;;8.60;99.90;;;;;;5030719;28;20052;-68
2022/12/25 07:09:02;;;;;;;0.10;0.10;;;8.60;99.90;;;;;;5029243;28;20168;-68
2022/12/25 07:11:28;;;;;;;0.63;0.63;;;8.50;99.90;;;;;;5024638;28;20049;-68
2022/12/25 07:13:53;;;;;;;0.20;0.20;;;8.60;99.90;;;;;;5030081;28;20675;-68
2022/12/25 07:16:19;;;;;;;0.32;0.32;;;8.60;99.90;;;;;;5030512;28;20041;-68
2022/12/25 07:18:45;;;;;;;0.45;0.45;;;8.60;99.90;;;;;;5029195;28;20095;-68
2022/12/25 07:21:16;;;;;;;1.38;1.27;;;8.60;99.90;;;;;;5027829;28;20041;-68
2022/12/25 07:23:43;;;;;;;1.00;0.50;;;8.60;99.90;;;;;;5022887;28;20045;-68
2022/12/25 07:26:10;;;;;;;1.27;0.50;;;8.70;99.90;;;;;;5029582;28;20053;-68
2022/12/25 07:28:35;;;;;;;2.30;1.15;;;8.70;99.90;;;;;;5027326;28;20052;-68
2022/12/25 07:31:08;;;;;;;2.58;1.50;;;8.70;99.90;;;;;;5028368;28;20045;-68
2022/12/25 07:33:34;;;;;;;0.77;0.77;;;8.70;99.90;;;;;;5025236;28;20046;-68
2022/12/25 07:36:00;;;;;;;4.40;1.42;;;8.70;99.90;;;;;;5029401;28;20045;-68
2022/12/25 07:38:26;;;;;;;1.60;1.50;;;8.70;99.90;;;;;;5028232;28;20083;-68
2022/12/25 07:40:52;;;;;;;4.93;1.60;;;8.80;99.90;;;;;;5028340;28;20111;-68
2022/12/25 07:43:18;;;;;;;0.68;0.68;;;8.80;99.90;;;;;;5029525;28;20049;-68
2022/12/25 07:45:43;;;;;;;0.25;0.25;;;8.70;99.90;;;;;;5025816;28;20049;-68
2022/12/25 07:48:09;;;;;;;4.07;1.83;;;8.80;99.90;;;;;;5028515;28;20123;-68
2022/12/25 07:50:35;;;;;;;0.40;0.40;;;8.80;99.90;;;;;;5025881;28;20224;-68
2022/12/25 07:53:01;;;;;;;0.93;0.93;;;8.80;99.90;;;;;;5024966;28;20082;-68
2022/12/25 07:55:26;;;;;;;0.30;0.30;;;8.80;99.90;;;;;;5025490;28;20054;-68
2022/12/25 07:57:52;;;;;;;0.65;0.63;;;8.80;99.90;;;;;;5028872;28;20046;-68
2022/12/25 08:00:18;;;;;;;0.10;0.10;;;8.80;99.90;;;;;;5027244;28;20099;-68
2022/12/25 08:02:44;;;;;;;0.10;0.10;;;8.80;99.90;;;;;;5023652;28;20049;-68
2022/12/25 08:05:09;;;;;;;0.70;0.65;;;8.80;99.90;;;;;;5028391;28;20037;-67
2022/12/25 08:07:35;;;;;;;0.63;0.63;;;8.80;99.90;;;;;;5028658;28;20037;-68
2022/12/25 08:10:02;;;;;;;0.85;0.75;;;8.70;99.90;;;;;;5024810;28;20049;-68
2022/12/25 08:12:27;;;;;;;0.50;0.50;;;8.70;99.90;;;;;;5026849;28;20046;-68
2022/12/25 08:14:53;;;;;;;0.10;0.10;;;8.70;99.90;;;;;;5022440;28;20393;-68
2022/12/25 08:17:19;;;;;;;0.20;0.20;;;8.70;99.90;;;;;;5029595;28;20049;-68
2022/12/25 08:19:44;;;;;;;0.40;0.40;;;8.70;99.90;;;;;;5027363;28;20129;-68
2022/12/25 08:22:10;;;;;;;1.08;0.75;;;8.70;99.90;;;;;;5026438;28;20646;-68
2022/12/25 08:24:35;;;;;;;0.28;0.28;;;8.70;99.90;;;;;;5027759;28;20076;-68
2022/12/25 08:27:02;;;;;;;0.00;0.00;;;8.70;99.90;;;;;;5028094;28;20049;-68
2022/12/25 08:29:27;;;;;;;0.10;0.10;;;8.70;99.90;;;;;;5015800;28;20042;-68
2022/12/25 08:31:54;;;;;;;6.13;0.85;;;8.70;99.90;;;;;;5017705;28;20064;-68
2022/12/25 08:34:20;;;;;;;0.75;0.47;;;8.70;99.90;;;;;;5023520;28;20041;-68
2022/12/25 08:36:45;;;;;;;0.57;0.57;;;8.70;99.90;;;;;;5024404;28;20148;-68
2022/12/25 08:39:11;;;;;;;2.08;1.30;;;8.70;99.90;;;;;;5026496;28;20124;-68
2022/12/25 08:41:37;;;;;;;0.15;0.15;;;8.70;99.90;;;;;;5020833;28;20100;-68
2022/12/25 08:44:04;;;;;;;0.17;0.17;;;8.70;99.90;;;;;;5024411;28;20093;-68
2022/12/25 08:46:30;;;;;;;0.88;0.88;;;8.70;99.90;;;;;;5018323;28;20196;-68
2022/12/25 08:48:56;;;;;;;1.05;0.95;;;8.70;99.90;;;;;;5024746;28;20128;-68
2022/12/25 08:51:23;;;;;;;0.52;0.52;;;8.70;99.90;;;;;;5028470;28;20045;-68
2022/12/25 08:53:51;;;;;;;0.10;0.10;;;8.70;99.90;;;;;;5028661;28;20124;-68
2022/12/25 08:56:17;;;;;;;0.10;0.10;;;8.70;99.90;;;;;;5026995;28;20250;-68
2022/12/25 08:58:44;;;;;;;0.10;0.10;;;8.70;99.90;;;;;;5026723;28;20184;-68
2022/12/25 09:01:11;;;;;;;0.10;0.10;;;8.70;99.90;;;;;;5028585;28;20366;-68
2022/12/25 09:03:37;;;;;;;0.10;0.10;;;8.70;99.90;;;;;;5027932;28;20038;-68
2022/12/25 09:06:03;;;;;;;0.73;0.40;;;8.80;99.90;;;;;;5024630;28;20045;-69
2022/12/25 09:08:29;;;;;;;0.85;0.85;;;8.80;99.90;;;;;;5026406;28;20045;-68
2022/12/25 09:10:54;;;;;;;2.10;1.27;;;8.70;99.90;;;;;;5022970;28;20533;-68
2022/12/25 09:13:20;;;;;;;0.55;0.55;;;8.80;99.90;;;;;;5027623;28;20041;-68
2022/12/25 09:15:45;;;;;;;0.10;0.10;;;8.70;99.90;;;;;;5026487;28;20433;-69
2022/12/25 09:18:11;;;;;;;0.65;0.65;;;8.70;99.90;;;;;;5025379;28;20033;-68
2022/12/25 09:20:36;;;;;;;0.22;0.22;;;8.70;99.90;;;;;;5028518;28;20092;-69
2022/12/25 09:23:02;;;;;;;0.68;0.68;;;8.80;99.90;;;;;;5026861;28;20088;-69
2022/12/25 09:25:28;;;;;;;0.28;0.28;;;8.80;99.90;;;;;;5027624;28;20057;-68
2022/12/25 09:27:55;;;;;;;0.13;0.13;;;8.80;99.90;;;;;;5028213;28;20508;-68
2022/12/25 09:30:21;;;;;;;0.20;0.20;;;8.80;99.90;;;;;;5027146;28;20124;-68
2022/12/25 09:32:46;;;;;;;0.70;0.70;;;8.80;99.90;;;;;;5021436;28;20153;-69
2022/12/25 09:35:13;;;;;;;1.35;1.25;;;8.80;99.90;;;;;;5033699;28;20076;-69
2022/12/25 09:37:39;;;;;;;0.80;0.80;;;8.80;99.90;;;;;;5027112;28;20038;-69
2022/12/25 09:40:05;;;;;;;0.35;0.35;;;8.90;99.90;;;;;;5026097;28;20118;-69
2022/12/25 09:42:33;;;;;;;0.10;0.10;;;8.90;99.90;;;;;;5027746;28;20152;-69
2022/12/25 09:45:04;;;;;;;0.30;0.30;;;8.90;99.90;;;;;;5029747;28;20041;-69
2022/12/25 09:47:33;;;;;;;0.30;0.30;;;8.90;99.90;;;;;;5029059;28;20390;-69
2022/12/25 09:50:15;;;;;;;2.20;2.00;;;8.90;99.90;;;;;;5031411;28;20084;-67
2022/12/25 09:52:53;;;;;;;0.20;0.20;;;8.90;99.90;;;;;;5029101;28;20133;-66
2022/12/25 09:55:23;;;;;;;0.73;0.73;;;8.90;99.90;;;;;;5031853;28;20056;-67
2022/12/25 09:57:54;;;;;;;0.28;0.28;;;9.00;99.90;;;;;;5030336;28;20025;-67
2022/12/25 10:00:23;;;;;;;3.20;2.20;;;9.00;99.90;;;;;;5039399;28;20049;-66
2022/12/25 10:03:13;;;;;;;0.10;0.10;;;8.90;99.90;;;;;;5030442;28;20479;-67
2022/12/25 10:06:15;;;;;;;0.55;0.55;;;8.90;99.90;;;;;;5028335;28;20052;-66
2022/12/25 10:09:02;;;;;;;0.10;0.10;;;9.00;99.90;;;;;;5024495;28;20390;-67
2022/12/25 10:11:58;;;;;;;0.10;0.10;;;9.00;99.90;;;;;;5019407;28;20049;-67
2022/12/25 10:14:27;;;;;;;0.57;0.57;;;8.90;99.90;;;;;;5019701;28;20060;-67
2022/12/25 10:17:15;;;;;;;0.40;0.40;;;9.00;99.90;;;;;;5026695;28;20053;-67
2022/12/25 10:20:08;;;;;;;0.52;0.52;;;8.90;99.90;;;;;;5022608;28;20040;-68
2022/12/25 10:22:39;;;;;;;0.73;0.73;;;9.00;99.90;;;;;;4998234;28;20057;-66
2022/12/25 10:25:13;;;;;;;0.65;0.65;;;9.00;99.90;;;;;;5027759;28;20064;-67
2022/12/25 10:27:41;;;;;;;0.10;0.10;;;9.00;99.90;;;;;;5022697;28;20485;-67
2022/12/25 10:30:19;;;;;;;0.20;0.20;;;9.00;99.90;;;;;;5026998;28;20100;-67
2022/12/25 10:32:46;;;;;;;0.10;0.10;;;9.00;99.90;;;;;;5025414;28;20045;-67
2022/12/25 10:35:18;;;;;;;22.80;2.53;;;9.00;99.90;;;;;;5028980;28;20041;-67
2022/12/25 10:37:57;;;;;;;0.32;0.32;;;9.00;99.90;;;;;;5028520;28;20057;-67
2022/12/25 10:40:23;;;;;;;0.43;0.43;;;9.00;99.90;;;;;;5030218;28;20045;-67
2022/12/25 10:42:54;;;;;;;0.80;0.80;;;9.00;99.90;;;;;;5028601;28;20507;-67
2022/12/25 10:45:20;;;;;;;0.35;0.35;;;9.00;99.90;;;;;;5029658;28;20037;-67
2022/12/25 10:47:46;;;;;;;0.73;0.73;;;9.10;99.90;;;;;;5029335;28;20061;-67
2022/12/25 10:50:24;;;;;;;4.75;1.27;;;9.00;99.90;;;;;;5028518;28;20501;-67
2022/12/25 10:53:04;;;;;;;0.10;0.10;;;9.10;99.90;;;;;;5030282;28;20061;-67
2022/12/25 10:55:30;;;;;;;0.22;0.22;;;9.10;99.90;;;;;;5028933;28;20068;-67
2022/12/25 10:57:57;;;;;;;0.20;0.20;;;9.10;99.90;;;;;;5030001;28;20171;-67
2022/12/25 11:00:31;;;;;;;9.27;1.83;;;9.10;99.90;;;;;;5029901;28;20466;-67
2022/12/25 11:02:57;;;;;;;0.10;0.10;;;9.10;99.90;;;;;;5028028;28;20922;-67
2022/12/25 11:05:32;;;;;;;0.20;0.20;;;9.10;99.90;;;;;;5025387;28;20069;-67
2022/12/25 11:08:00;;;;;;;0.43;0.43;;;9.10;99.90;;;;;;5026533;28;20048;-67
2022/12/25 11:10:36;;;;;;;0.25;0.25;;;9.20;99.90;;;;;;5027216;28;20053;-67
2022/12/25 11:13:04;;;;;;;0.20;0.20;;;9.20;99.90;;;;;;5030334;28;20052;-67
2022/12/25 11:15:32;;;;;;;0.20;0.20;;;9.20;99.90;;;;;;5024168;28;20042;-68
2022/12/25 11:17:58;;;;;;;0.10;0.10;;;9.10;99.90;;;;;;5042499;28;20049;-67
2022/12/25 11:20:24;;;;;;;0.80;0.80;;;9.20;99.90;;;;;;5030181;28;20720;-67
2022/12/25 11:22:50;;;;;;;0.60;0.60;;;9.20;99.90;;;;;;5028656;28;20049;-67
2022/12/25 11:25:25;;;;;;;2.28;1.38;;;9.20;99.90;;;;;;5024071;28;20056;-67
2022/12/25 11:28:02;;;;;;;0.10;0.10;;;9.20;99.90;;;;;;5027166;28;20045;-67
2022/12/25 11:30:30;;;;;;;0.20;0.20;;;9.30;99.90;;;;;;5028089;28;20059;-67
2022/12/25 11:33:03;;;;;;;0.30;0.30;;;9.30;99.90;;;;;;5028903;28;20085;-67
2022/12/25 11:35:44;;;;;;;0.45;0.45;;;9.30;99.90;;;;;;5029624;28;20053;-67
2022/12/25 11:38:10;;;;;;;0.10;0.10;;;9.30;99.90;;;;;;5025379;28;20037;-67
2022/12/25 11:40:44;;;;;;;0.10;0.10;;;9.30;99.90;;;;;;5020590;28;20111;-67
2022/12/25 11:43:28;;;;;;;0.10;0.10;;;9.30;99.90;;;;;;5026073;28;20107;-67
2022/12/25 11:45:57;;;;;;;;;;;9.40;99.90;;;;;;5026621;28;20033;-67
2022/12/25 11:48:32;;;;;;;0.10;0.10;;;9.30;99.90;;;;;;5024314;28;20674;-67
2022/12/25 11:51:04;;;;;;;0.50;0.50;;;9.30;99.90;;;;;;5028487;28;20053;-67
2022/12/25 11:53:40;;;;;;;0.57;0.57;;;9.40;99.90;;;;;;5028006;28;20115;-67
2022/12/25 11:56:09;;;;;;;0.17;0.17;;;9.40;99.90;;;;;;5028833;28;20139;-67
2022/12/25 11:58:48;;;;;;;1.05;0.98;;;9.40;99.90;;;;;;5029148;28;20045;-67
2022/12/25 12:01:33;;;;;;;0.65;0.63;;;9.40;99.90;;;;;;5026252;28;20056;-67
2022/12/25 12:04:01;;;;;;;0.10;0.10;;;9.40;99.90;;;;;;5014903;28;20057;-68
2022/12/25 12:06:34;;;;;;;0.52;0.52;;;9.40;99.90;;;;;;5015780;28;20052;-67
2022/12/25 12:09:38;;;;;;;0.40;0.40;;;9.50;99.90;;;;;;5027769;28;20038;-67
2022/12/25 12:12:14;;;;;;;3.90;0.73;;;9.50;99.90;;;;;;5029204;28;20518;-67
2022/12/25 12:14:56;;;;;;;0.28;0.28;;;9.50;99.90;;;;;;5026491;28;20053;-67
2022/12/25 12:17:22;;;;;;;0.10;0.10;;;9.50;99.90;;;;;;5025230;28;20037;-67
2022/12/25 12:19:48;;;;;;;0.47;0.47;;;9.50;99.90;;;;;;5028407;28;20034;-68
2022/12/25 12:22:25;;;;;;;0.10;0.10;;;9.50;99.90;;;;;;5029028;28;20117;-67
2022/12/25 12:25:00;;;;;;;0.85;0.85;;;9.50;99.90;;;;;;5026502;28;20408;-67
2022/12/25 12:27:39;;;;;;;0.10;0.10;;;9.50;99.90;;;;;;5026043;28;20045;-67
2022/12/25 12:30:28;;;;;;;0.10;0.10;;;9.60;99.90;;;;;;5028781;28;20496;-68
2022/12/25 12:33:00;;;;;;;0.32;0.32;;;9.50;99.90;;;;;;5028428;28;20072;-67
2022/12/25 12:35:38;;;;;;;0.40;0.40;;;9.60;99.90;;;;;;5026737;28;20045;-67
2022/12/25 12:38:11;;;;;;;0.10;0.10;;;9.50;99.90;;;;;;5028053;28;20081;-67
2022/12/25 12:40:42;;;;;;;;;;;9.60;99.90;;;;;;5027889;28;20042;-67
2022/12/25 12:43:34;;;;;;;0.65;0.65;;;9.60;99.90;;;;;;5027880;28;20007;-67
2022/12/25 12:46:21;;;;;;;0.17;0.17;;;9.50;99.90;;;;;;4992568;28;20123;-67
2022/12/25 12:48:49;;;;;;;1.60;1.50;;;9.60;99.90;;;;;;5026342;28;20061;-67
2022/12/25 12:51:33;;;;;;;0.10;0.10;;;9.60;99.90;;;;;;5023398;28;20041;-67
2022/12/25 12:54:16;;;;;;;;;;;9.60;99.90;;;;;;5028346;28;20049;-67
2022/12/25 12:56:41;;;;;;;0.28;0.28;;;9.60;99.90;;;;;;5027643;28;19928;-68
2022/12/25 12:59:09;;;;;;;0.13;0.13;;;9.50;99.90;;;;;;5027658;28;20037;-67
2022/12/25 13:01:50;;;;;;;0.20;0.20;;;9.60;99.90;;;;;;5026653;28;20045;-68
2022/12/25 13:04:30;;;;;;;0.10;0.10;;;9.60;99.90;;;;;;5026278;28;20052;-67
2022/12/25 13:07:31;;;;;;;0.10;0.10;;;9.60;99.90;;;;;;5027207;28;20106;-68
2022/12/25 13:10:10;;;;;;;0.10;0.10;;;9.60;99.90;;;;;;5026599;28;20378;-68
2022/12/25 13:12:37;;;;;;;0.10;0.10;;;9.50;99.90;;;;;;5026028;28;20136;-67
2022/12/25 13:15:03;;;;;;;0.10;0.10;;;9.50;99.90;;;;;;5028171;28;20380;-67
2022/12/25 13:17:29;;;;;;;0.00;0.00;;;9.50;99.90;;;;;;5025700;28;20041;-67
2022/12/25 13:19:58;;;;;;;0.40;0.25;;;9.50;99.90;;;;;;5026051;28;20479;-67
2022/12/25 13:22:31;;;;;;;0.10;0.10;;;9.50;99.90;;;;;;5027119;28;20136;-67
2022/12/25 13:24:59;;;;;;;0.10;0.10;;;9.50;99.90;;;;;;5026740;28;20045;-67
2022/12/25 13:27:28;;;;;;;0.10;0.10;;;9.60;99.90;;;;;;5028462;28;20475;-67
2022/12/25 13:29:54;;;;;;;0.47;0.40;;;9.60;99.90;;;;;;5026071;28;20068;-67
2022/12/25 13:32:30;;;;;;;0.20;0.20;;;9.50;99.90;;;;;;5027079;28;20045;-67
2022/12/25 13:34:57;;;;;;;0.60;0.40;;;9.60;99.90;;;;;;5026308;28;20080;-67
2022/12/25 13:37:26;;;;;;;0.10;0.10;;;9.60;99.90;;;;;;5025826;28;20038;-68
2022/12/25 13:39:55;;;;;;;0.15;0.15;;;9.50;99.90;;;;;;5027152;28;20091;-68
2022/12/25 13:42:27;;;;;;;0.10;0.10;;;9.50;99.90;;;;;;5027497;28;20045;-67
2022/12/25 13:44:56;;;;;;;0.90;0.90;;;9.50;99.90;;;;;;5026232;28;20133;-68
2022/12/25 13:47:30;;;;;;;0.38;0.38;;;9.60;99.90;;;;;;5026764;28;20062;-68
2022/12/25 13:49:57;;;;;;;0.00;0.00;;;9.60;99.90;;;;;;5026794;28;20053;-67
2022/12/25 13:52:35;;;;;;;0.10;0.10;;;9.60;99.90;;;;;;5023753;28;20056;-68
2022/12/25 13:55:10;;;;;;;0.10;0.10;;;9.60;99.90;;;;;;5026254;28;20069;-67
2022/12/25 13:57:44;;;;;;;0.38;0.38;;;9.60;99.90;;;;;;5026060;28;20056;-67
2022/12/25 14:00:19;;;;;;;0.80;0.35;;;9.60;99.90;;;;;;5026488;28;20095;-68
2022/12/25 14:02:45;;;;;;;2.20;2.05;;;9.60;99.90;;;;;;5026992;28;20046;-67
2022/12/25 14:05:31;;;;;;;0.00;0.00;;;9.60;99.90;;;;;;5025631;28;20077;-68
2022/12/25 14:08:04;;;;;;;0.20;0.20;;;9.60;99.90;;;;;;5026153;28;20492;-67
2022/12/25 14:10:36;;;;;;;0.22;0.22;;;9.60;99.90;;;;;;5025803;28;20061;-68
2022/12/25 14:13:06;;;;;;;0.10;0.10;;;9.60;99.90;;;;;;5026294;28;20068;-68
2022/12/25 14:15:33;;;;;;;0.75;0.75;;;9.50;99.90;;;;;;5021700;28;20520;-68
2022/12/25 14:17:59;;;;;;;0.20;0.20;;;9.60;99.90;;;;;;5026860;28;20079;-68
2022/12/25 14:20:53;;;;;;;0.10;0.10;;;9.50;99.90;;;;;;5025487;28;20585;-68
2022/12/25 14:23:19;;;;;;;0.10;0.10;;;9.60;99.90;;;;;;5025303;28;20050;-68
2022/12/25 14:25:46;;;;;;;0.00;0.00;;;9.60;99.90;;;;;;5022225;28;20047;-68
2022/12/25 14:28:31;;;;;;;0.10;0.10;;;9.60;99.90;;;;;;5021706;28;20053;-68
2022/12/25 14:30:59;;;;;;;0.10;0.10;;;9.60;99.90;;;;;;5024323;28;20095;-68
2022/12/25 14:33:26;;;;;;;0.10;0.10;;;9.60;99.90;;;;;;5029447;28;20049;-69
2022/12/25 14:35:52;;;;;;;0.10;0.10;;;9.60;99.90;;;;;;5026857;28;20104;-68
2022/12/25 14:38:28;;;;;;;0.10;0.10;;;9.50;99.90;;;;;;5028639;28;20053;-68
2022/12/25 14:41:14;;;;;;;0.10;0.10;;;9.50;99.90;;;;;;5028854;28;20045;-68
2022/12/25 14:43:53;;;;;;;0.43;0.43;;;9.50;99.90;;;;;;5030036;28;20477;-68
2022/12/25 14:46:25;;;;;;;0.10;0.10;;;9.60;99.90;;;;;;5027211;28;20042;-68
2022/12/25 14:49:19;;;;;;;0.00;0.00;;;9.60;99.90;;;;;;5026924;28;20088;-68
2022/12/25 14:51:45;;;;;;;0.10;0.10;;;9.60;99.90;;;;;;5029523;28;20112;-68
2022/12/25 14:54:18;;;;;;;0.38;0.38;;;9.60;99.90;;;;;;5029720;28;20712;-68